sensor_id;sensor_type;location;lat;lon;timestamp;pressure;altitude;pressure_sealevel;temperature;humidity
39823;BME280;25499;53.958;10.970;2023-05-25T04:58:22;102325.66;;;11.10;100.00
39823;BME280;25499;53.958;10.970;2023-05-25T05:00:50;102323.91;;;11.09;100.00
39823;BME280;25499;53.958;10.970;2023-05-25T05:03:17;102322.53;;;11.28;100.00
39823;BME280;25499;53.958;10.970;2023-05-25T05:05:44;102324.66;;;11.48;100.00
39823;BME280;25499;53.958;10.970;2023-05-25T05:08:11;102327.41;;;11.57;100.00
39823;BME280;25499;53.958;10.970;2023-05-25T05:10:38;102321.00;;;11.39;100.00
39823;BME280;25499;53.958;10.970;2023-05-25T05:13:05;102322.84;;;11.45;100.00
39823;BME280;25499;53.958;10.970;2023-05-25T05:15:34;102328.41;;;11.64;100.00
39823;BME280;25499;53.958;10.970;2023-05-25T05:18:01;102335.78;;;11.88;100.00
39823;BME280;25499;53.958;10.970;2023-05-25T05:20:28;102341.75;;;11.81;100.00
39823;BME280;25499;53.958;10.970;2023-05-25T05:22:55;102335.47;;;11.69;100.00
39823;BME280;25499;53.958;10.970;2023-05-25T05:25:24;102336.41;;;11.73;100.00
39823;BME280;25499;53.958;10.970;2023-05-25T05:27:54;102345.06;;;11.72;100.00
39823;BME280;25499;53.958;10.970;2023-05-25T05:30:36;102339.03;;;11.76;100.00
39823;BME280;25499;53.958;10.970;2023-05-25T05:33:02;102342.53;;;11.75;100.00
39823;BME280;25499;53.958;10.970;2023-05-25T05:35:30;102345.94;;;11.72;100.00
39823;BME280;25499;53.958;10.970;2023-05-25T05:37:57;102345.00;;;11.69;100.00
39823;BME280;25499;53.958;10.970;2023-05-25T05:40:23;102351.84;;;11.62;100.00
39823;BME280;25499;53.958;10.970;2023-05-25T05:42:51;102354.50;;;11.64;100.00
39823;BME280;25499;53.958;10.970;2023-05-25T05:45:18;102359.75;;;11.67;100.00
39823;BME280;25499;53.958;10.970;2023-05-25T05:47:46;102364.84;;;11.61;100.00
39823;BME280;25499;53.958;10.970;2023-05-25T05:50:13;102359.53;;;11.54;100.00
39823;BME280;25499;53.958;10.970;2023-05-25T05:52:39;102355.22;;;11.56;100.00
39823;BME280;25499;53.958;10.970;2023-05-25T05:55:07;102364.81;;;11.57;100.00
39823;BME280;25499;53.958;10.970;2023-05-25T05:57:34;102366.88;;;11.75;100.00
39823;BME280;25499;53.958;10.970;2023-05-25T06:00:01;102362.31;;;11.64;100.00
39823;BME280;25499;53.958;10.970;2023-05-25T06:02:31;102365.78;;;11.64;100.00
39823;BME280;25499;53.958;10.970;2023-05-25T06:04:59;102363.31;;;11.70;100.00
39823;BME280;25499;53.958;10.970;2023-05-25T06:07:26;102367.66;;;11.70;100.00
39823;BME280;25499;53.958;10.970;2023-05-25T06:09:53;102364.19;;;11.71;100.00
39823;BME280;25499;53.958;10.970;2023-05-25T06:12:20;102366.00;;;11.75;100.00
39823;BME280;25499;53.958;10.970;2023-05-25T06:14:47;102368.81;;;11.86;100.00
39823;BME280;25499;53.958;10.970;2023-05-25T06:17:16;102369.72;;;11.89;100.00
39823;BME280;25499;53.958;10.970;2023-05-25T06:19:43;102383.06;;;12.02;100.00
39823;BME280;25499;53.958;10.970;2023-05-25T06:22:12;102385.75;;;12.08;100.00
39823;BME280;25499;53.958;10.970;2023-05-25T06:24:39;102390.28;;;12.18;100.00
39823;BME280;25499;53.958;10.970;2023-05-25T06:27:06;102391.34;;;12.29;100.00
39823;BME280;25499;53.958;10.970;2023-05-25T06:29:33;102394.06;;;12.36;100.00
39823;BME280;25499;53.958;10.970;2023-05-25T06:32:00;102391.28;;;12.26;100.00
39823;BME280;25499;53.958;10.970;2023-05-25T06:34:26;102393.09;;;12.32;100.00
39823;BME280;25499;53.958;10.970;2023-05-25T06:36:53;102384.34;;;12.28;100.00
39823;BME280;25499;53.958;10.970;2023-05-25T06:39:21;102396.59;;;12.31;100.00
39823;BME280;25499;53.958;10.970;2023-05-25T06:41:48;102396.94;;;12.53;100.00
39823;BME280;25499;53.958;10.970;2023-05-25T06:44:15;102379.53;;;12.55;100.00
39823;BME280;25499;53.958;10.970;2023-05-25T06:46:43;102383.06;;;12.58;100.00
39823;BME280;25499;53.958;10.970;2023-05-25T06:49:10;102388.31;;;12.60;100.00
39823;BME280;25499;53.958;10.970;2023-05-25T06:51:37;102371.72;;;12.55;100.00
39823;BME280;25499;53.958;10.970;2023-05-25T06:54:04;102379.41;;;13.08;100.00
39823;BME280;25499;53.958;10.970;2023-05-25T06:56:34;102389.16;;;14.01;100.00
39823;BME280;25499;53.958;10.970;2023-05-25T06:59:01;102381.53;;;14.30;100.00
39823;BME280;25499;53.958;10.970;2023-05-25T07:01:27;102365.78;;;14.21;97.34
39823;BME280;25499;53.958;10.970;2023-05-25T07:03:55;102351.63;;;13.99;94.26
39823;BME280;25499;53.958;10.970;2023-05-25T07:06:22;102355.09;;;13.98;93.76
39823;BME280;25499;53.958;10.970;2023-05-25T07:08:49;102351.50;;;13.85;93.18
39823;BME280;25499;53.958;10.970;2023-05-25T07:11:16;102360.22;;;13.86;93.08
39823;BME280;25499;53.958;10.970;2023-05-25T07:13:46;102360.38;;;14.01;91.95
39823;BME280;25499;53.958;10.970;2023-05-25T07:16:13;102368.56;;;14.47;91.85
39823;BME280;25499;53.958;10.970;2023-05-25T07:18:40;102367.63;;;14.39;91.01
39823;BME280;25499;53.958;10.970;2023-05-25T07:21:11;102368.59;;;14.49;89.84
39823;BME280;25499;53.958;10.970;2023-05-25T07:24:11;102370.50;;;14.74;88.79
39823;BME280;25499;53.958;10.970;2023-05-25T07:26:38;102368.78;;;14.78;88.34
39823;BME280;25499;53.958;10.970;2023-05-25T07:29:06;102381.00;;;14.73;88.92
39823;BME280;25499;53.958;10.970;2023-05-25T07:31:33;102387.47;;;15.52;88.68
39823;BME280;25499;53.958;10.970;2023-05-25T07:34:01;102368.25;;;15.65;85.16
39823;BME280;25499;53.958;10.970;2023-05-25T07:36:27;102361.31;;;16.08;82.26
39823;BME280;25499;53.958;10.970;2023-05-25T07:38:54;102346.34;;;16.53;80.27
39823;BME280;25499;53.958;10.970;2023-05-25T07:41:21;102339.38;;;15.67;78.41
39823;BME280;25499;53.958;10.970;2023-05-25T07:43:48;102358.59;;;15.51;80.85
39823;BME280;25499;53.958;10.970;2023-05-25T07:46:18;102362.97;;;15.62;81.55
39823;BME280;25499;53.958;10.970;2023-05-25T07:48:49;102376.19;;;16.15;81.34
39823;BME280;25499;53.958;10.970;2023-05-25T07:51:16;102358.59;;;16.66;78.35
39823;BME280;25499;53.958;10.970;2023-05-25T07:53:43;102354.09;;;17.18;76.50
39823;BME280;25499;53.958;10.970;2023-05-25T07:56:10;102345.91;;;17.64;74.93
39823;BME280;25499;53.958;10.970;2023-05-25T07:58:37;102331.00;;;17.58;73.72
39823;BME280;25499;53.958;10.970;2023-05-25T08:01:04;102331.81;;;17.65;72.45
39823;BME280;25499;53.958;10.970;2023-05-25T08:03:32;102316.09;;;17.56;70.56
39823;BME280;25499;53.958;10.970;2023-05-25T08:05:59;102326.91;;;17.09;71.60
39823;BME280;25499;53.958;10.970;2023-05-25T08:08:26;102343.22;;;17.70;72.10
39823;BME280;25499;53.958;10.970;2023-05-25T08:10:53;102319.34;;;17.95;69.69
39823;BME280;25499;53.958;10.970;2023-05-25T08:13:20;102301.97;;;17.66;67.76
39823;BME280;25499;53.958;10.970;2023-05-25T08:15:47;102341.28;;;17.95;69.57
39823;BME280;25499;53.958;10.970;2023-05-25T08:18:15;102316.13;;;17.49;68.48
39823;BME280;25499;53.958;10.970;2023-05-25T08:20:44;102345.66;;;18.01;69.21
39823;BME280;25499;53.958;10.970;2023-05-25T08:23:11;102335.03;;;18.07;68.54
39823;BME280;25499;53.958;10.970;2023-05-25T08:25:38;102327.91;;;18.20;67.67
39823;BME280;25499;53.958;10.970;2023-05-25T08:28:05;102340.19;;;18.19;67.59
39823;BME280;25499;53.958;10.970;2023-05-25T08:30:32;102335.38;;;18.61;66.50
39823;BME280;25499;53.958;10.970;2023-05-25T08:32:59;102310.78;;;18.61;65.26
39823;BME280;25499;53.958;10.970;2023-05-25T08:35:26;102314.03;;;18.85;64.91
39823;BME280;25499;53.958;10.970;2023-05-25T08:38:20;102309.78;;;18.70;64.33
39823;BME280;25499;53.958;10.970;2023-05-25T08:41:03;102310.59;;;18.76;64.48
39823;BME280;25499;53.958;10.970;2023-05-25T08:43:30;102320.53;;;18.51;64.28
39823;BME280;25499;53.958;10.970;2023-05-25T08:46:04;102334.72;;;18.41;65.19
39823;BME280;25499;53.958;10.970;2023-05-25T08:48:38;102343.59;;;18.34;65.50
39823;BME280;25499;53.958;10.970;2023-05-25T08:51:13;102325.16;;;19.10;63.77
39823;BME280;25499;53.958;10.970;2023-05-25T08:53:56;102320.38;;;19.36;62.67
39823;BME280;25499;53.958;10.970;2023-05-25T08:56:35;102317.31;;;19.64;61.50
39823;BME280;25499;53.958;10.970;2023-05-25T08:59:10;102309.94;;;19.86;61.52
39823;BME280;25499;53.958;10.970;2023-05-25T09:01:45;102304.88;;;19.71;60.44
39823;BME280;25499;53.958;10.970;2023-05-25T09:04:12;102311.47;;;20.01;59.73
39823;BME280;25499;53.958;10.970;2023-05-25T09:06:42;102316.41;;;20.20;59.41
39823;BME280;25499;53.958;10.970;2023-05-25T09:09:12;102308.84;;;19.98;59.65
39823;BME280;25499;53.958;10.970;2023-05-25T09:11:39;102308.97;;;20.40;59.40
39823;BME280;25499;53.958;10.970;2023-05-25T09:14:07;102281.63;;;19.93;58.40
39823;BME280;25499;53.958;10.970;2023-05-25T09:16:35;102307.72;;;19.59;58.68
39823;BME280;25499;53.958;10.970;2023-05-25T09:19:02;102330.38;;;19.73;59.73
39823;BME280;25499;53.958;10.970;2023-05-25T09:21:30;102318.75;;;19.85;58.85
39823;BME280;25499;53.958;10.970;2023-05-25T09:23:59;102310.28;;;19.62;58.49
39823;BME280;25499;53.958;10.970;2023-05-25T09:26:27;102339.00;;;20.38;58.98
39823;BME280;25499;53.958;10.970;2023-05-25T09:28:54;102306.91;;;20.55;57.92
39823;BME280;25499;53.958;10.970;2023-05-25T09:31:22;102328.59;;;20.75;58.30
39823;BME280;25499;53.958;10.970;2023-05-25T09:33:50;102312.50;;;20.86;57.05
39823;BME280;25499;53.958;10.970;2023-05-25T09:36:20;102291.81;;;21.03;55.56
39823;BME280;25499;53.958;10.970;2023-05-25T09:38:48;102284.19;;;21.29;54.54
39823;BME280;25499;53.958;10.970;2023-05-25T09:41:15;102301.44;;;21.47;55.14
39823;BME280;25499;53.958;10.970;2023-05-25T09:43:43;102281.28;;;21.00;54.35
39823;BME280;25499;53.958;10.970;2023-05-25T09:46:10;102301.16;;;20.79;55.96
39823;BME280;25499;53.958;10.970;2023-05-25T09:48:38;102310.81;;;20.37;56.10
39823;BME280;25499;53.958;10.970;2023-05-25T09:51:06;102316.69;;;20.51;55.86
39823;BME280;25499;53.958;10.970;2023-05-25T09:53:33;102321.34;;;21.26;55.51
39823;BME280;25499;53.958;10.970;2023-05-25T09:56:01;102293.03;;;20.89;54.74
39823;BME280;25499;53.958;10.970;2023-05-25T09:58:28;102287.34;;;20.18;55.27
39823;BME280;25499;53.958;10.970;2023-05-25T10:00:57;102313.28;;;19.98;55.69
39823;BME280;25499;53.958;10.970;2023-05-25T10:03:24;102343.66;;;20.25;56.98
39823;BME280;25499;53.958;10.970;2023-05-25T10:05:53;102373.50;;;20.80;58.36
39823;BME280;25499;53.958;10.970;2023-05-25T10:08:21;102334.16;;;21.05;56.79
39823;BME280;25499;53.958;10.970;2023-05-25T10:10:49;102315.19;;;20.84;55.33
39823;BME280;25499;53.958;10.970;2023-05-25T10:13:19;102301.91;;;20.41;55.04
39823;BME280;25499;53.958;10.970;2023-05-25T10:15:47;102316.13;;;20.35;55.63
39823;BME280;25499;53.958;10.970;2023-05-25T10:18:20;102325.47;;;20.53;55.73
39823;BME280;25499;53.958;10.970;2023-05-25T10:20:59;102311.28;;;20.57;55.16
39823;BME280;25499;53.958;10.970;2023-05-25T10:23:30;102318.34;;;20.57;55.30
39823;BME280;25499;53.958;10.970;2023-05-25T10:26:02;102300.22;;;20.82;54.61
39823;BME280;25499;53.958;10.970;2023-05-25T10:28:34;102301.09;;;20.37;54.34
39823;BME280;25499;53.958;10.970;2023-05-25T10:31:02;102328.69;;;20.24;55.57
39823;BME280;25499;53.958;10.970;2023-05-25T10:33:31;102326.72;;;20.35;55.14
39823;BME280;25499;53.958;10.970;2023-05-25T10:35:59;102314.63;;;20.22;54.70
39823;BME280;25499;53.958;10.970;2023-05-25T10:38:29;102340.78;;;20.37;55.92
39823;BME280;25499;53.958;10.970;2023-05-25T10:40:58;102341.00;;;20.25;55.45
39823;BME280;25499;53.958;10.970;2023-05-25T10:43:33;102348.75;;;20.36;56.03
39823;BME280;25499;53.958;10.970;2023-05-25T10:46:00;102350.25;;;19.99;55.95
39823;BME280;25499;53.958;10.970;2023-05-25T10:48:35;102380.72;;;20.22;57.00
39823;BME280;25499;53.958;10.970;2023-05-25T10:51:03;102353.75;;;20.51;56.11
39823;BME280;25499;53.958;10.970;2023-05-25T10:53:31;102339.03;;;20.83;55.23
39823;BME280;25499;53.958;10.970;2023-05-25T10:56:02;102344.59;;;21.11;55.11
39823;BME280;25499;53.958;10.970;2023-05-25T10:58:29;102302.38;;;21.05;53.23
39823;BME280;25499;53.958;10.970;2023-05-25T11:00:58;102289.53;;;20.86;52.47
39823;BME280;25499;53.958;10.970;2023-05-25T11:03:54;102302.84;;;20.83;52.77
39823;BME280;25499;53.958;10.970;2023-05-25T11:06:22;102310.03;;;21.58;53.44
39823;BME280;25499;53.958;10.970;2023-05-25T11:08:51;102293.03;;;22.35;51.60
39823;BME280;25499;53.958;10.970;2023-05-25T11:11:19;102296.31;;;22.75;51.25
39823;BME280;25499;53.958;10.970;2023-05-25T11:13:47;102290.22;;;22.71;50.66
39823;BME280;25499;53.958;10.970;2023-05-25T11:16:19;102255.28;;;22.85;49.99
39823;BME280;25499;53.958;10.970;2023-05-25T11:18:51;102247.31;;;22.85;49.40
39823;BME280;25499;53.958;10.970;2023-05-25T11:21:43;102263.47;;;22.48;49.60
39823;BME280;25499;53.958;10.970;2023-05-25T11:24:12;102275.28;;;22.67;50.01
39823;BME280;25499;53.958;10.970;2023-05-25T11:26:55;102250.81;;;22.58;48.92
39823;BME280;25499;53.958;10.970;2023-05-25T11:29:22;102247.66;;;22.43;49.05
39823;BME280;25499;53.958;10.970;2023-05-25T11:31:52;102264.41;;;22.45;49.34
39823;BME280;25499;53.958;10.970;2023-05-25T11:34:21;102245.91;;;22.44;48.93
39823;BME280;25499;53.958;10.970;2023-05-25T11:36:52;102283.00;;;22.77;48.93
39823;BME280;25499;53.958;10.970;2023-05-25T11:39:20;102247.31;;;22.85;48.12
39823;BME280;25499;53.958;10.970;2023-05-25T11:41:50;102271.81;;;22.65;48.91
39823;BME280;25499;53.958;10.970;2023-05-25T11:44:25;102275.28;;;22.67;48.75
39823;BME280;25499;53.958;10.970;2023-05-25T11:46:52;102250.13;;;22.79;48.17
39823;BME280;25499;53.958;10.970;2023-05-25T11:49:22;102261.88;;;22.72;48.23
39823;BME280;25499;53.958;10.970;2023-05-25T11:51:52;102253.09;;;22.70;48.24
39823;BME280;25499;53.958;10.970;2023-05-25T11:54:22;102242.97;;;22.83;47.53
39823;BME280;25499;53.958;10.970;2023-05-25T11:56:49;102217.31;;;22.82;46.85
39823;BME280;25499;53.958;10.970;2023-05-25T11:59:17;102219.44;;;22.70;47.13
39823;BME280;25499;53.958;10.970;2023-05-25T12:01:58;102267.28;;;22.69;48.99
39823;BME280;25499;53.958;10.970;2023-05-25T12:04:25;102226.66;;;22.65;47.34
39823;BME280;25499;53.958;10.970;2023-05-25T12:07:00;102205.59;;;22.29;47.17
39823;BME280;25499;53.958;10.970;2023-05-25T12:09:27;102240.03;;;22.32;48.16
39823;BME280;25499;53.958;10.970;2023-05-25T12:11:59;102199.91;;;22.12;47.02
39823;BME280;25499;53.958;10.970;2023-05-25T12:14:29;102238.31;;;22.30;48.06
39823;BME280;25499;53.958;10.970;2023-05-25T12:16:56;102245.28;;;22.34;48.53
39823;BME280;25499;53.958;10.970;2023-05-25T12:19:23;102258.81;;;22.23;49.41
39823;BME280;25499;53.958;10.970;2023-05-25T12:21:50;102236.28;;;22.40;48.48
39823;BME280;25499;53.958;10.970;2023-05-25T12:24:19;102229.28;;;22.67;47.85
39823;BME280;25499;53.958;10.970;2023-05-25T12:26:47;102227.81;;;22.25;47.96
39823;BME280;25499;53.958;10.970;2023-05-25T12:29:14;102218.63;;;21.73;48.49
39823;BME280;25499;53.958;10.970;2023-05-25T12:31:41;102223.00;;;21.74;49.03
39823;BME280;25499;53.958;10.970;2023-05-25T12:34:09;102244.00;;;21.83;49.77
39823;BME280;25499;53.958;10.970;2023-05-25T12:36:38;102178.69;;;21.79;47.69
39823;BME280;25499;53.958;10.970;2023-05-25T12:39:05;102242.16;;;21.85;49.91
39823;BME280;25499;53.958;10.970;2023-05-25T12:41:45;102212.53;;;22.02;48.27
39823;BME280;25499;53.958;10.970;2023-05-25T12:44:23;102230.56;;;21.55;50.17
39823;BME280;25499;53.958;10.970;2023-05-25T12:46:51;102233.94;;;21.61;50.05
39823;BME280;25499;53.958;10.970;2023-05-25T12:49:25;102229.09;;;21.41;49.99
39823;BME280;25499;53.958;10.970;2023-05-25T12:51:52;102226.09;;;21.19;50.15
39823;BME280;25499;53.958;10.970;2023-05-25T12:54:39;102207.16;;;20.99;50.57
39823;BME280;25499;53.958;10.970;2023-05-25T12:57:10;102227.69;;;20.89;51.15
39823;BME280;25499;53.958;10.970;2023-05-25T12:59:39;102250.72;;;21.24;51.96
39823;BME280;25499;53.958;10.970;2023-05-25T13:02:06;102210.47;;;21.09;50.95
39823;BME280;25499;53.958;10.970;2023-05-25T13:04:34;102186.31;;;20.85;50.39
39823;BME280;25499;53.958;10.970;2023-05-25T13:07:02;102237.50;;;20.84;51.71
39823;BME280;25499;53.958;10.970;2023-05-25T13:09:29;102220.13;;;20.72;51.36
39823;BME280;25499;53.958;10.970;2023-05-25T13:11:58;102225.22;;;20.39;51.76
39823;BME280;25499;53.958;10.970;2023-05-25T13:14:26;102221.75;;;20.36;52.45
39823;BME280;25499;53.958;10.970;2023-05-25T13:16:53;102222.09;;;20.19;51.87
39823;BME280;25499;53.958;10.970;2023-05-25T13:19:22;102216.03;;;20.13;52.46
39823;BME280;25499;53.958;10.970;2023-05-25T13:21:49;102180.09;;;20.03;51.20
39823;BME280;25499;53.958;10.970;2023-05-25T13:24:16;102214.09;;;19.75;52.63
39823;BME280;25499;53.958;10.970;2023-05-25T13:26:45;102253.38;;;19.95;54.35
39823;BME280;25499;53.958;10.970;2023-05-25T13:29:11;102244.72;;;19.87;54.02
39823;BME280;25499;53.958;10.970;2023-05-25T13:31:40;102229.66;;;19.92;54.38
39823;BME280;25499;53.958;10.970;2023-05-25T13:34:07;102215.00;;;19.75;53.44
39823;BME280;25499;53.958;10.970;2023-05-25T13:36:34;102234.44;;;19.68;54.36
39823;BME280;25499;53.958;10.970;2023-05-25T13:39:01;102274.72;;;19.86;55.71
39823;BME280;25499;53.958;10.970;2023-05-25T13:41:29;102196.69;;;19.60;53.38
39823;BME280;25499;53.958;10.970;2023-05-25T13:43:56;102191.63;;;19.48;53.08
39823;BME280;25499;53.958;10.970;2023-05-25T13:46:22;102233.56;;;19.68;54.32
39823;BME280;25499;53.958;10.970;2023-05-25T13:48:51;102250.28;;;19.70;54.90
39823;BME280;25499;53.958;10.970;2023-05-25T13:51:17;102231.19;;;19.54;54.78
39823;BME280;25499;53.958;10.970;2023-05-25T13:53:44;102237.28;;;19.56;54.58
39823;BME280;25499;53.958;10.970;2023-05-25T13:56:13;102217.94;;;19.55;54.18
39823;BME280;25499;53.958;10.970;2023-05-25T13:58:40;102231.22;;;19.51;54.68
39823;BME280;25499;53.958;10.970;2023-05-25T14:01:06;102242.75;;;19.47;55.14
39823;BME280;25499;53.958;10.970;2023-05-25T14:03:33;102238.41;;;19.43;54.93
39823;BME280;25499;53.958;10.970;2023-05-25T14:06:01;102246.34;;;19.41;55.60
39823;BME280;25499;53.958;10.970;2023-05-25T14:08:28;102256.88;;;19.43;55.79
39823;BME280;25499;53.958;10.970;2023-05-25T14:10:55;102250.75;;;19.41;56.28
39823;BME280;25499;53.958;10.970;2023-05-25T14:13:22;102229.06;;;19.22;55.30
39823;BME280;25499;53.958;10.970;2023-05-25T14:15:49;102231.69;;;19.23;55.79
39823;BME280;25499;53.958;10.970;2023-05-25T14:18:16;102229.13;;;19.17;54.70
39823;BME280;25499;53.958;10.970;2023-05-25T14:20:42;102233.41;;;19.24;54.93
39823;BME280;25499;53.958;10.970;2023-05-25T14:23:10;102217.78;;;19.09;54.81
39823;BME280;25499;53.958;10.970;2023-05-25T14:25:37;102237.31;;;18.98;55.77
39823;BME280;25499;53.958;10.970;2023-05-25T14:28:04;102218.06;;;18.90;55.08
39823;BME280;25499;53.958;10.970;2023-05-25T14:30:31;102234.59;;;19.05;55.83
39823;BME280;25499;53.958;10.970;2023-05-25T14:32:57;102234.69;;;18.95;55.40
39823;BME280;25499;53.958;10.970;2023-05-25T14:35:24;102225.94;;;18.93;54.82
39823;BME280;25499;53.958;10.970;2023-05-25T14:37:51;102241.00;;;18.87;56.05
39823;BME280;25499;53.958;10.970;2023-05-25T14:40:19;102244.56;;;18.79;55.62
39823;BME280;25499;53.958;10.970;2023-05-25T14:42:46;102241.00;;;18.85;55.43
39823;BME280;25499;53.958;10.970;2023-05-25T14:45:13;102222.59;;;18.80;54.48
39823;BME280;25499;53.958;10.970;2023-05-25T14:47:40;102242.84;;;18.77;55.17
39823;BME280;25499;53.958;10.970;2023-05-25T14:50:07;102243.88;;;18.65;55.07
39823;BME280;25499;53.958;10.970;2023-05-25T14:52:34;102221.31;;;18.42;54.56
39823;BME280;25499;53.958;10.970;2023-05-25T14:55:01;102236.28;;;18.40;55.34
39823;BME280;25499;53.958;10.970;2023-05-25T14:57:30;102228.38;;;18.40;54.99
39823;BME280;25499;53.958;10.970;2023-05-25T14:59:57;102234.53;;;18.38;55.43
39823;BME280;25499;53.958;10.970;2023-05-25T15:02:24;102210.81;;;18.36;54.30
39823;BME280;25499;53.958;10.970;2023-05-25T15:04:51;102195.25;;;18.16;53.75
39823;BME280;25499;53.958;10.970;2023-05-25T15:07:19;102201.38;;;18.18;53.72
39823;BME280;25499;53.958;10.970;2023-05-25T15:09:46;102251.44;;;18.21;55.62
39823;BME280;25499;53.958;10.970;2023-05-25T15:12:12;102234.84;;;18.13;55.15
39823;BME280;25499;53.958;10.970;2023-05-25T15:14:41;102240.09;;;18.13;55.44
39823;BME280;25499;53.958;10.970;2023-05-25T15:17:07;102257.56;;;18.23;56.44
39823;BME280;25499;53.958;10.970;2023-05-25T15:19:34;102227.63;;;18.27;55.35
39823;BME280;25499;53.958;10.970;2023-05-25T15:22:01;102240.97;;;18.14;56.00
39823;BME280;25499;53.958;10.970;2023-05-25T15:24:27;102274.28;;;18.19;57.32
39823;BME280;25499;53.958;10.970;2023-05-25T15:26:54;102220.69;;;18.20;55.45
39823;BME280;25499;53.958;10.970;2023-05-25T15:29:21;102188.19;;;18.20;53.26
39823;BME280;25499;53.958;10.970;2023-05-25T15:31:50;102187.25;;;18.22;52.86
39823;BME280;25499;53.958;10.970;2023-05-25T15:34:17;102200.66;;;18.04;54.21
39823;BME280;25499;53.958;10.970;2023-05-25T15:36:44;102215.69;;;17.96;54.73
39823;BME280;25499;53.958;10.970;2023-05-25T15:39:11;102181.31;;;18.06;52.82
39823;BME280;25499;53.958;10.970;2023-05-25T15:41:39;102163.94;;;17.85;52.69
39823;BME280;25499;53.958;10.970;2023-05-25T15:44:06;102165.69;;;17.85;52.81
39823;BME280;25499;53.958;10.970;2023-05-25T15:46:37;102193.78;;;17.86;53.24
39823;BME280;25499;53.958;10.970;2023-05-25T15:49:05;102229.78;;;17.90;55.15
39823;BME280;25499;53.958;10.970;2023-05-25T15:51:36;102231.56;;;17.89;55.45
39823;BME280;25499;53.958;10.970;2023-05-25T15:54:04;102197.31;;;17.88;54.10
39823;BME280;25499;53.958;10.970;2023-05-25T15:56:31;102223.69;;;17.80;54.70
39823;BME280;25499;53.958;10.970;2023-05-25T15:58:58;102234.22;;;17.82;55.57
39823;BME280;25499;53.958;10.970;2023-05-25T16:01:25;102193.03;;;17.71;54.43
39823;BME280;25499;53.958;10.970;2023-05-25T16:03:51;102198.44;;;17.58;54.78
39823;BME280;25499;53.958;10.970;2023-05-25T16:06:19;102199.41;;;17.47;54.41
39823;BME280;25499;53.958;10.970;2023-05-25T16:08:47;102193.31;;;17.42;54.42
39823;BME280;25499;53.958;10.970;2023-05-25T16:11:14;102220.56;;;17.37;55.26
39823;BME280;25499;53.958;10.970;2023-05-25T16:13:41;102215.31;;;17.37;55.59
39823;BME280;25499;53.958;10.970;2023-05-25T16:16:08;102210.09;;;17.30;55.02
39823;BME280;25499;53.958;10.970;2023-05-25T16:18:34;102206.56;;;17.31;55.05
39823;BME280;25499;53.958;10.970;2023-05-25T16:21:01;102216.19;;;17.34;55.67
39823;BME280;25499;53.958;10.970;2023-05-25T16:23:30;102198.72;;;17.24;55.26
39823;BME280;25499;53.958;10.970;2023-05-25T16:25:57;102211.03;;;17.23;55.33
39823;BME280;25499;53.958;10.970;2023-05-25T16:28:24;102220.75;;;17.09;55.85
39823;BME280;25499;53.958;10.970;2023-05-25T16:30:50;102224.28;;;17.12;56.37
39823;BME280;25499;53.958;10.970;2023-05-25T16:33:17;102225.19;;;17.02;56.45
39823;BME280;25499;53.958;10.970;2023-05-25T16:35:44;102228.72;;;17.01;57.03
39823;BME280;25499;53.958;10.970;2023-05-25T16:38:11;102233.06;;;17.02;57.01
39823;BME280;25499;53.958;10.970;2023-05-25T16:40:39;102222.63;;;16.94;56.74
39823;BME280;25499;53.958;10.970;2023-05-25T16:43:06;102223.50;;;16.90;56.55
39823;BME280;25499;53.958;10.970;2023-05-25T16:45:32;102236.69;;;16.78;56.98
39823;BME280;25499;53.958;10.970;2023-05-25T16:48:00;102240.22;;;16.72;58.00
39823;BME280;25499;53.958;10.970;2023-05-25T16:50:26;102256.84;;;16.81;58.55
39823;BME280;25499;53.958;10.970;2023-05-25T16:52:53;102242.88;;;16.72;58.53
39823;BME280;25499;53.958;10.970;2023-05-25T16:55:20;102262.16;;;16.68;58.81
39823;BME280;25499;53.958;10.970;2023-05-25T16:57:48;102257.81;;;16.61;59.45
39823;BME280;25499;53.958;10.970;2023-05-25T17:00:15;102242.88;;;16.63;58.34
39823;BME280;25499;53.958;10.970;2023-05-25T17:02:42;102241.16;;;16.56;59.08
39823;BME280;25499;53.958;10.970;2023-05-25T17:05:09;102248.19;;;16.54;59.05
39823;BME280;25499;53.958;10.970;2023-05-25T17:07:36;102249.09;;;16.48;58.72
39823;BME280;25499;53.958;10.970;2023-05-25T17:10:06;102242.09;;;16.44;58.58
39823;BME280;25499;53.958;10.970;2023-05-25T17:12:33;102239.47;;;16.47;58.02
39823;BME280;25499;53.958;10.970;2023-05-25T17:15:01;102229.00;;;16.39;58.22
39823;BME280;25499;53.958;10.970;2023-05-25T17:17:28;102229.88;;;16.32;58.33
39823;BME280;25499;53.958;10.970;2023-05-25T17:19:54;102233.41;;;16.25;58.81
39823;BME280;25499;53.958;10.970;2023-05-25T17:22:21;102239.56;;;16.15;58.75
39823;BME280;25499;53.958;10.970;2023-05-25T17:24:48;102253.56;;;16.14;59.73
39823;BME280;25499;53.958;10.970;2023-05-25T17:27:15;102256.22;;;16.11;60.07
39823;BME280;25499;53.958;10.970;2023-05-25T17:29:43;102247.47;;;16.06;59.87
39823;BME280;25499;53.958;10.970;2023-05-25T17:32:11;102259.72;;;16.03;60.06
39823;BME280;25499;53.958;10.970;2023-05-25T17:34:38;102239.59;;;15.99;59.62
39823;BME280;25499;53.958;10.970;2023-05-25T17:37:05;102251.88;;;16.00;59.52
39823;BME280;25499;53.958;10.970;2023-05-25T17:39:32;102245.72;;;16.00;59.52
39823;BME280;25499;53.958;10.970;2023-05-25T17:42:00;102249.22;;;15.99;60.00